createdAt,value
2018-09-25T00:00:08.970Z,1.92
2018-09-25T00:02:42.748Z,1.85
2018-09-25T00:05:16.524Z,2.25
2018-09-25T00:07:50.312Z,2.17
2018-09-25T00:10:24.133Z,2.47
2018-09-25T00:12:57.950Z,2.25
2018-09-25T00:15:31.715Z,1.70
2018-09-25T00:18:05.530Z,2.10
2018-09-25T00:20:39.458Z,1.87
2018-09-25T00:23:13.334Z,2.05
2018-09-25T00:25:47.226Z,2.20
2018-09-25T00:28:20.938Z,1.55
2018-09-25T00:30:54.556Z,1.50
2018-09-25T00:33:28.193Z,1.60
2018-09-25T00:36:01.960Z,1.70
2018-09-25T00:38:35.658Z,1.87
2018-09-25T00:41:09.267Z,2.05
2018-09-25T00:43:43.054Z,1.90
2018-09-25T00:46:16.689Z,2.90
2018-09-25T00:48:50.596Z,1.75
2018-09-25T00:51:24.424Z,2.00
2018-09-25T00:53:58.157Z,1.82
2018-09-25T00:56:31.838Z,1.72
2018-09-25T00:59:05.749Z,1.80
2018-09-25T01:01:39.522Z,1.30
2018-09-25T01:04:13.277Z,1.92
2018-09-25T01:06:47.152Z,1.80
2018-09-25T01:09:21.072Z,2.15
2018-09-25T01:11:54.901Z,1.55
2018-09-25T01:14:28.581Z,1.92
2018-09-25T01:17:02.553Z,1.55
2018-09-25T01:19:36.385Z,2.17
2018-09-25T01:22:10.107Z,1.50
2018-09-25T01:24:43.944Z,2.12
2018-09-25T01:27:17.635Z,1.98
2018-09-25T01:29:51.354Z,1.82
2018-09-25T01:32:25.033Z,1.82
2018-09-25T01:34:58.714Z,2.50
2018-09-25T01:37:32.323Z,2.45
2018-09-25T01:40:06.017Z,2.10
2018-09-25T01:42:39.734Z,1.85
2018-09-25T01:45:13.472Z,1.60
2018-09-25T01:47:47.241Z,2.00
2018-09-25T01:50:21.034Z,1.60
2018-09-25T01:52:54.833Z,1.95
2018-09-25T01:55:28.638Z,2.35
2018-09-25T01:58:02.384Z,1.70
2018-09-25T02:03:40.942Z,2.12
2018-09-25T02:06:14.779Z,2.37
2018-09-25T02:08:48.580Z,2.52
2018-09-25T02:11:22.451Z,2.70
2018-09-25T02:13:56.260Z,2.20
2018-09-25T02:16:30.058Z,2.08
2018-09-25T02:19:03.763Z,2.22
2018-09-25T02:21:37.536Z,3.02
2018-09-25T02:24:11.794Z,2.15
2018-09-25T02:26:45.718Z,3.02
2018-09-25T02:29:19.756Z,2.72
2018-09-25T02:31:53.546Z,2.62
2018-09-25T02:34:27.237Z,2.10
2018-09-25T02:37:00.991Z,2.72
2018-09-25T02:39:34.754Z,2.65
2018-09-25T02:42:08.500Z,2.17
2018-09-25T02:44:42.184Z,2.70
2018-09-25T02:47:15.782Z,2.62
2018-09-25T02:49:49.471Z,2.17
2018-09-25T02:52:23.218Z,2.80
2018-09-25T02:54:57.100Z,2.30
2018-09-25T02:57:30.787Z,2.50
2018-09-25T03:00:04.421Z,2.62
2018-09-25T03:02:38.175Z,2.20
2018-09-25T03:05:11.963Z,2.12
2018-09-25T03:07:45.590Z,3.05
2018-09-25T03:10:19.358Z,2.80
2018-09-25T03:12:53.103Z,3.52
2018-09-25T03:15:26.987Z,2.35
2018-09-25T03:18:00.964Z,17.98
2018-09-25T03:20:34.901Z,9.15
2018-09-25T03:23:08.714Z,5.42
2018-09-25T03:25:42.452Z,3.02
2018-09-25T03:28:16.337Z,3.35
2018-09-25T03:30:50.330Z,3.50
2018-09-25T03:33:24.067Z,3.80
2018-09-25T03:35:57.946Z,3.10
2018-09-25T03:38:31.615Z,3.25
2018-09-25T03:41:05.327Z,3.40
2018-09-25T03:43:39.184Z,3.70
2018-09-25T03:46:13.162Z,3.40
2018-09-25T03:48:46.958Z,3.95
2018-09-25T03:51:20.747Z,2.87
2018-09-25T03:53:54.473Z,3.40
2018-09-25T03:56:28.458Z,3.00
2018-09-25T03:59:02.279Z,3.45
2018-09-25T04:01:36.310Z,3.35
2018-09-25T04:04:10.051Z,2.67
2018-09-25T04:06:43.870Z,2.95
2018-09-25T04:09:17.670Z,3.02
2018-09-25T04:11:51.330Z,2.62
2018-09-25T04:14:24.997Z,2.12
2018-09-25T04:16:58.806Z,2.95
2018-09-25T04:19:32.705Z,2.92
2018-09-25T04:22:06.713Z,3.17
2018-09-25T04:24:40.570Z,2.72
2018-09-25T04:27:14.230Z,2.72
2018-09-25T04:29:48.055Z,2.50
2018-09-25T04:32:21.971Z,2.70
2018-09-25T04:34:55.855Z,3.17
2018-09-25T04:37:29.654Z,2.50
2018-09-25T04:40:03.418Z,2.90
2018-09-25T04:42:36.969Z,3.08
2018-09-25T04:45:11.517Z,3.00
2018-09-25T04:47:45.227Z,2.98
2018-09-25T04:50:19.027Z,3.22
2018-09-25T04:52:52.759Z,3.72
2018-09-25T04:55:26.438Z,3.20
2018-09-25T04:58:00.149Z,3.45
2018-09-25T05:00:33.828Z,3.10
2018-09-25T05:03:07.446Z,3.75
2018-09-25T05:05:41.155Z,4.33
2018-09-25T05:08:14.957Z,3.83
2018-09-25T05:10:48.865Z,3.40
2018-09-25T05:13:22.623Z,3.45
2018-09-25T05:15:56.231Z,3.70
2018-09-25T05:18:29.907Z,3.35
2018-09-25T05:21:03.639Z,3.40
2018-09-25T05:23:37.365Z,4.83
2018-09-25T05:26:11.359Z,4.90
2018-09-25T05:28:45.170Z,4.45
2018-09-25T05:31:18.869Z,4.30
2018-09-25T05:33:52.420Z,4.70
2018-09-25T05:36:26.241Z,4.62
2018-09-25T05:38:59.947Z,3.75
2018-09-25T05:41:33.626Z,4.30
2018-09-25T05:44:07.432Z,4.53
2018-09-25T05:46:41.230Z,3.40
2018-09-25T05:49:14.898Z,3.83
2018-09-25T05:51:48.722Z,3.10
2018-09-25T05:54:22.549Z,3.75
2018-09-25T05:56:56.259Z,4.50
2018-09-25T05:59:29.966Z,4.60
2018-09-25T06:02:03.640Z,4.35
2018-09-25T06:04:37.274Z,4.70
2018-09-25T06:07:11.344Z,4.65
2018-09-25T06:09:45.240Z,5.97
2018-09-25T06:12:18.734Z,5.50
2018-09-25T06:14:52.559Z,5.30
2018-09-25T06:17:26.206Z,3.70
2018-09-25T06:20:00.135Z,3.87
2018-09-25T06:22:33.888Z,3.35
2018-09-25T06:25:07.716Z,3.70
2018-09-25T06:27:41.547Z,3.80
2018-09-25T06:30:15.116Z,4.05
2018-09-25T06:32:48.915Z,3.67
2018-09-25T06:35:22.773Z,4.62
2018-09-25T06:37:56.535Z,4.00
2018-09-25T06:40:30.161Z,4.20
2018-09-25T06:43:03.925Z,3.95
2018-09-25T06:45:37.766Z,4.55
2018-09-25T06:48:11.659Z,3.30
2018-09-25T06:50:45.453Z,3.55
2018-09-25T06:53:19.096Z,4.67
2018-09-25T06:55:52.800Z,4.67
2018-09-25T06:58:26.583Z,5.12
2018-09-25T07:01:00.459Z,5.20
2018-09-25T07:03:34.000Z,3.92
2018-09-25T07:06:07.717Z,4.20
2018-09-25T07:08:41.475Z,4.70
2018-09-25T07:11:15.273Z,4.22
2018-09-25T07:13:49.008Z,3.62
2018-09-25T07:16:22.672Z,3.33
2018-09-25T07:18:56.859Z,3.62
2018-09-25T07:21:30.692Z,3.30
2018-09-25T07:24:04.396Z,2.00
2018-09-25T07:26:38.104Z,1.92
2018-09-25T07:29:11.971Z,2.45
2018-09-25T07:31:45.652Z,2.22
2018-09-25T07:34:19.404Z,3.15
2018-09-25T07:36:53.054Z,2.70
2018-09-25T07:39:26.833Z,2.47
2018-09-25T07:42:00.654Z,2.35
2018-09-25T07:44:34.443Z,2.62
2018-09-25T07:47:08.341Z,2.10
2018-09-25T07:49:42.271Z,1.60
2018-09-25T07:52:16.047Z,1.55
2018-09-25T07:54:49.722Z,1.60
2018-09-25T07:57:23.700Z,1.35
2018-09-25T07:59:57.447Z,1.37
2018-09-25T08:02:31.097Z,1.20
2018-09-25T08:05:04.889Z,1.73
2018-09-25T08:07:38.733Z,1.50
2018-09-25T08:10:12.747Z,1.40
2018-09-25T08:12:46.471Z,1.40
2018-09-25T08:15:20.232Z,1.43
2018-09-25T08:17:54.014Z,1.30
2018-09-25T08:20:27.770Z,1.60
2018-09-25T08:23:01.800Z,1.90
2018-09-25T08:25:35.512Z,2.73
2018-09-25T08:28:09.255Z,1.80
2018-09-25T08:30:42.983Z,1.30
2018-09-25T08:33:16.759Z,1.67
2018-09-25T08:35:50.622Z,1.17
2018-09-25T08:38:24.607Z,1.63
2018-09-25T08:40:58.440Z,1.30
2018-09-25T08:43:32.087Z,1.30
2018-09-25T08:46:05.880Z,1.17
2018-09-25T08:48:39.504Z,1.30
2018-09-25T08:51:13.239Z,1.20
2018-09-25T08:53:47.152Z,1.17
2018-09-25T08:56:20.904Z,1.30
2018-09-25T08:58:54.693Z,1.53
2018-09-25T09:01:28.380Z,1.30
2018-09-25T09:04:02.168Z,1.17
2018-09-25T09:06:35.854Z,1.20
2018-09-25T09:09:12.445Z,1.00
2018-09-25T09:11:46.279Z,0.90
2018-09-25T09:14:20.067Z,1.20
2018-09-25T09:16:53.703Z,1.00
2018-09-25T09:19:27.710Z,1.00
2018-09-25T09:22:01.442Z,1.30
2018-09-25T09:24:35.167Z,1.00
2018-09-25T09:27:08.900Z,0.90
2018-09-25T09:29:42.789Z,1.03
2018-09-25T09:32:16.607Z,1.47
2018-09-25T09:34:50.351Z,1.17
2018-09-25T09:37:24.164Z,0.90
2018-09-25T09:39:57.910Z,1.27
2018-09-25T09:42:31.765Z,1.30
2018-09-25T09:45:05.681Z,0.90
2018-09-25T09:47:39.439Z,1.00
2018-09-25T09:50:13.262Z,1.00
2018-09-25T09:52:47.023Z,1.00
2018-09-25T09:55:20.895Z,0.90
2018-09-25T09:57:54.681Z,1.20
2018-09-25T10:00:28.359Z,0.90
2018-09-25T10:03:02.073Z,1.03
2018-09-25T10:05:35.927Z,0.90
2018-09-25T10:08:09.844Z,0.80
2018-09-25T10:10:43.618Z,1.27
2018-09-25T10:13:17.443Z,1.20
2018-09-25T10:15:51.170Z,1.10
2018-09-25T10:18:24.828Z,0.80
2018-09-25T10:20:58.606Z,1.00
2018-09-25T10:23:32.431Z,1.00
2018-09-25T10:26:06.275Z,1.00
2018-09-25T10:28:40.242Z,0.80
2018-09-25T10:31:14.223Z,1.00
2018-09-25T10:33:47.893Z,0.97
2018-09-25T10:36:21.687Z,0.80
2018-09-25T10:38:55.408Z,0.80
2018-09-25T10:41:29.310Z,0.70
2018-09-25T10:44:02.898Z,1.00
2018-09-25T10:46:36.601Z,0.80
2018-09-25T10:49:10.398Z,1.00
2018-09-25T10:51:44.123Z,1.10
2018-09-25T10:54:17.960Z,0.73
2018-09-25T10:56:51.756Z,0.90
2018-09-25T10:59:25.439Z,1.07
2018-09-25T11:01:59.360Z,0.90
2018-09-25T11:04:33.168Z,0.80
2018-09-25T11:07:06.901Z,1.10
2018-09-25T11:09:40.677Z,1.20
2018-09-25T11:12:14.452Z,0.80
2018-09-25T11:14:48.078Z,0.80
2018-09-25T11:17:21.872Z,0.90
2018-09-25T11:19:55.614Z,0.80
2018-09-25T11:22:29.415Z,0.93
2018-09-25T11:25:03.104Z,0.70
2018-09-25T11:27:36.774Z,0.90
2018-09-25T11:30:10.673Z,1.00
2018-09-25T11:32:44.506Z,0.90
2018-09-25T11:35:18.492Z,1.00
2018-09-25T11:37:52.385Z,0.93
2018-09-25T11:40:26.192Z,0.80
2018-09-25T11:42:59.854Z,0.87
2018-09-25T11:45:33.713Z,0.90
2018-09-25T11:48:07.458Z,0.90
2018-09-25T11:50:41.359Z,1.00
2018-09-25T11:53:15.070Z,0.93
2018-09-25T11:55:49.020Z,0.90
2018-09-25T11:58:22.819Z,1.00
2018-09-25T12:00:56.636Z,0.87
2018-09-25T12:03:30.558Z,0.97
2018-09-25T12:06:04.450Z,1.20
2018-09-25T12:08:38.354Z,0.80
2018-09-25T12:11:12.165Z,0.80
2018-09-25T12:13:46.006Z,1.00
2018-09-25T12:16:19.679Z,0.80
2018-09-25T12:18:53.411Z,0.73
2018-09-25T12:21:27.033Z,0.90
2018-09-25T12:24:00.841Z,1.00
2018-09-25T12:26:34.606Z,0.60
2018-09-25T12:29:08.570Z,0.80
2018-09-25T12:31:42.319Z,0.70
2018-09-25T12:34:16.090Z,0.93
2018-09-25T12:36:50.610Z,0.60
2018-09-25T12:39:24.410Z,0.90
2018-09-25T12:41:58.170Z,0.70
2018-09-25T12:44:31.807Z,0.80
2018-09-25T12:47:05.731Z,0.87
2018-09-25T12:49:39.628Z,0.80
2018-09-25T12:52:13.595Z,0.93
2018-09-25T12:54:47.573Z,0.67
2018-09-25T12:57:21.294Z,0.90
2018-09-25T12:59:55.134Z,0.77
2018-09-25T13:02:28.927Z,0.60
2018-09-25T13:05:02.762Z,0.77
2018-09-25T13:07:36.595Z,0.70
2018-09-25T13:10:11.033Z,0.70
2018-09-25T13:12:44.854Z,0.70
2018-09-25T13:15:18.619Z,0.70
2018-09-25T13:17:52.308Z,0.50
2018-09-25T13:20:26.042Z,0.80
2018-09-25T13:22:59.750Z,0.67
2018-09-25T13:25:33.544Z,0.60
2018-09-25T13:28:07.072Z,0.60
2018-09-25T13:30:40.798Z,0.67
2018-09-25T13:33:14.719Z,0.70
2018-09-25T13:35:48.552Z,0.70
2018-09-25T13:38:22.350Z,0.50
2018-09-25T13:40:56.146Z,0.70
2018-09-25T13:43:29.950Z,0.83
2018-09-25T13:46:03.861Z,0.67
2018-09-25T13:48:37.625Z,0.60
2018-09-25T13:51:11.662Z,0.60
2018-09-25T13:53:45.653Z,0.77
2018-09-25T13:56:19.517Z,0.77
2018-09-25T13:58:53.294Z,0.80
2018-09-25T14:01:27.067Z,0.60
2018-09-25T14:04:00.806Z,0.50
2018-09-25T14:06:34.465Z,0.80
2018-09-25T14:09:08.313Z,0.77
2018-09-25T14:11:42.091Z,0.80
2018-09-25T14:14:15.720Z,0.70
2018-09-25T14:16:49.519Z,0.70
2018-09-25T14:19:23.227Z,0.60
2018-09-25T14:22:04.145Z,0.80
2018-09-25T14:24:37.835Z,0.90
2018-09-25T14:27:11.575Z,0.53
2018-09-25T14:29:45.412Z,0.73
2018-09-25T14:32:19.231Z,0.90
2018-09-25T14:34:53.191Z,0.90
2018-09-25T14:37:27.037Z,0.90
2018-09-25T14:40:00.761Z,0.70
2018-09-25T14:42:34.447Z,0.60
2018-09-25T14:45:08.266Z,0.70
2018-09-25T14:47:42.156Z,0.60
2018-09-25T14:50:15.877Z,0.80
2018-09-25T14:52:49.678Z,0.70
2018-09-25T14:55:23.425Z,0.70
2018-09-25T14:57:57.153Z,0.70
2018-09-25T15:00:31.061Z,0.77
2018-09-25T15:03:05.007Z,0.60
2018-09-25T15:05:38.994Z,0.67
2018-09-25T15:08:12.688Z,0.67
2018-09-25T15:10:46.589Z,0.60
2018-09-25T15:13:20.338Z,0.60
2018-09-25T15:15:54.240Z,0.60
2018-09-25T15:18:27.850Z,0.70
2018-09-25T15:21:01.586Z,0.77
2018-09-25T15:23:35.462Z,0.80
2018-09-25T15:26:09.173Z,0.70
2018-09-25T15:28:43.023Z,0.80
2018-09-25T15:31:16.771Z,0.70
2018-09-25T15:33:50.428Z,0.80
2018-09-25T15:36:24.175Z,0.70
2018-09-25T15:38:57.943Z,0.70
2018-09-25T15:41:31.987Z,0.70
2018-09-25T15:44:06.166Z,0.80
2018-09-25T15:46:40.349Z,0.70
2018-09-25T15:49:14.163Z,0.83
2018-09-25T15:51:47.954Z,0.67
2018-09-25T15:54:21.897Z,0.70
2018-09-25T15:56:55.690Z,0.90
2018-09-25T15:59:29.389Z,0.80
2018-09-25T16:02:03.382Z,0.77
2018-09-25T16:04:37.007Z,0.80
2018-09-25T16:07:10.941Z,0.90
2018-09-25T16:09:44.689Z,0.90
2018-09-25T16:12:18.301Z,0.70
2018-09-25T16:14:52.226Z,0.60
2018-09-25T16:17:26.021Z,0.60
2018-09-25T16:19:59.869Z,0.70
2018-09-25T16:22:33.759Z,0.70
2018-09-25T16:25:07.618Z,0.60
2018-09-25T16:27:41.545Z,0.90
2018-09-25T16:30:15.329Z,0.70
2018-09-25T16:32:49.149Z,0.60
2018-09-25T16:35:23.162Z,0.60
2018-09-25T16:37:56.945Z,0.70
2018-09-25T16:40:30.750Z,0.77
2018-09-25T16:43:04.628Z,0.70
2018-09-25T16:45:38.338Z,0.90
2018-09-25T16:48:12.098Z,0.90
2018-09-25T16:50:46.126Z,1.00
2018-09-25T16:53:20.035Z,0.90
2018-09-25T16:55:53.674Z,0.83
2018-09-25T16:58:27.792Z,0.63
2018-09-25T17:01:01.590Z,0.87
2018-09-25T17:03:35.314Z,0.90
2018-09-25T17:06:09.163Z,0.70
2018-09-25T17:08:42.856Z,0.70
2018-09-25T17:11:16.687Z,0.77
2018-09-25T17:13:50.659Z,1.10
2018-09-25T17:16:24.282Z,0.60
2018-09-25T17:18:58.120Z,0.90
2018-09-25T17:21:31.837Z,0.80
2018-09-25T17:24:05.839Z,0.60
2018-09-25T17:26:39.660Z,0.60
2018-09-25T17:29:13.545Z,0.70
2018-09-25T17:31:47.201Z,0.70
2018-09-25T17:34:20.897Z,0.62
2018-09-25T17:36:54.643Z,0.82
2018-09-25T17:39:28.591Z,1.00
2018-09-25T17:42:02.470Z,0.82
2018-09-25T17:44:36.225Z,0.70
2018-09-25T17:47:10.066Z,0.78
2018-09-25T17:49:43.851Z,0.90
2018-09-25T17:52:17.553Z,0.75
2018-09-25T17:54:51.369Z,0.80
2018-09-25T17:57:25.145Z,0.82
2018-09-25T17:59:58.842Z,0.70
2018-09-25T18:02:32.608Z,1.00
2018-09-25T18:05:06.369Z,0.68
2018-09-25T18:07:40.167Z,0.80
2018-09-25T18:10:13.943Z,0.80
2018-09-25T18:12:47.597Z,1.20
2018-09-25T18:15:21.221Z,0.90
2018-09-25T18:17:55.047Z,0.80
2018-09-25T18:20:28.701Z,1.10
2018-09-25T18:23:02.554Z,0.75
2018-09-25T18:25:36.296Z,0.80
2018-09-25T18:28:10.329Z,0.95
2018-09-25T18:30:44.127Z,0.70
2018-09-25T18:33:18.015Z,0.80
2018-09-25T18:35:51.788Z,0.80
2018-09-25T18:38:25.659Z,0.90
2018-09-25T18:40:59.457Z,0.80
2018-09-25T18:43:33.461Z,0.90
2018-09-25T18:46:07.114Z,0.78
2018-09-25T18:48:41.238Z,1.00
2018-09-25T18:51:15.013Z,0.90
2018-09-25T18:53:48.735Z,1.00
2018-09-25T18:56:22.509Z,1.10
2018-09-25T18:58:56.260Z,0.93
2018-09-25T19:01:30.199Z,1.10
2018-09-25T19:04:03.963Z,0.78
2018-09-25T19:06:37.898Z,0.90
2018-09-25T19:09:14.002Z,0.90
2018-09-25T19:11:47.926Z,0.90
2018-09-25T19:14:21.765Z,0.85
2018-09-25T19:16:55.423Z,1.25
2018-09-25T19:19:29.401Z,1.00
2018-09-25T19:22:03.287Z,0.90
2018-09-25T19:24:37.136Z,1.10
2018-09-25T19:27:10.838Z,0.90
2018-09-25T19:29:44.680Z,0.95
2018-09-25T19:32:18.404Z,1.10
2018-09-25T19:34:52.267Z,1.50
2018-09-25T19:37:26.137Z,1.07
2018-09-25T19:39:59.997Z,1.85
2018-09-25T19:42:33.731Z,2.10
2018-09-25T19:45:07.555Z,1.70
2018-09-25T19:47:41.454Z,1.10
2018-09-25T19:50:15.125Z,1.47
2018-09-25T19:52:49.003Z,1.32
2018-09-25T19:55:22.686Z,0.95
2018-09-25T19:57:56.316Z,1.00
2018-09-25T20:00:30.061Z,1.15
2018-09-25T20:03:03.787Z,1.30
2018-09-25T20:05:37.434Z,1.30
2018-09-25T20:08:11.170Z,0.95
2018-09-25T20:10:44.802Z,0.93
2018-09-25T20:13:18.465Z,1.35
2018-09-25T20:15:52.231Z,0.78
2018-09-25T20:18:25.924Z,1.02
2018-09-25T20:20:59.622Z,1.00
2018-09-25T20:23:33.391Z,1.20
2018-09-25T20:26:07.350Z,1.20
2018-09-25T20:28:41.255Z,1.00
2018-09-25T20:31:15.180Z,1.05
2018-09-25T20:33:48.949Z,1.10
2018-09-25T20:36:22.694Z,1.10
2018-09-25T20:38:56.571Z,1.22
2018-09-25T20:41:30.460Z,1.20
2018-09-25T20:44:04.414Z,0.80
2018-09-25T20:46:38.168Z,1.00
2018-09-25T20:49:12.130Z,1.27
2018-09-25T20:51:45.732Z,1.07
2018-09-25T20:54:19.509Z,1.20
2018-09-25T20:56:53.479Z,1.02
2018-09-25T20:59:27.148Z,1.02
2018-09-25T21:02:01.004Z,0.80
2018-09-25T21:04:34.682Z,0.90
2018-09-25T21:07:08.551Z,0.93
2018-09-25T21:09:42.343Z,1.15
2018-09-25T21:12:16.179Z,1.27
2018-09-25T21:14:49.894Z,1.12
2018-09-25T21:17:23.779Z,1.27
2018-09-25T21:19:57.709Z,1.10
2018-09-25T21:22:31.630Z,1.30
2018-09-25T21:25:05.456Z,1.02
2018-09-25T21:27:39.376Z,1.00
2018-09-25T21:30:13.137Z,1.47
2018-09-25T21:32:46.788Z,1.00
2018-09-25T21:35:20.548Z,1.30
2018-09-25T21:37:54.241Z,1.10
2018-09-25T21:40:28.135Z,1.30
2018-09-25T21:43:01.877Z,1.12
2018-09-25T21:45:35.767Z,1.22
2018-09-25T21:48:09.596Z,0.90
2018-09-25T21:50:43.343Z,1.20
2018-09-25T21:53:17.322Z,0.90
2018-09-25T21:55:50.982Z,1.25
2018-09-25T21:58:24.696Z,1.00
2018-09-25T22:00:58.339Z,1.15
2018-09-25T22:03:31.999Z,1.37
2018-09-25T22:06:05.915Z,1.12
2018-09-25T22:08:39.725Z,0.90
2018-09-25T22:11:13.651Z,0.90
2018-09-25T22:13:47.395Z,1.00
2018-09-25T22:16:21.339Z,1.20
2018-09-25T22:18:55.221Z,1.05
2018-09-25T22:21:28.927Z,0.93
2018-09-25T22:24:02.857Z,1.10
2018-09-25T22:26:36.769Z,1.10
2018-09-25T22:29:10.530Z,0.90
2018-09-25T22:31:44.343Z,1.10
2018-09-25T22:34:18.142Z,1.07
2018-09-25T22:36:52.022Z,1.00
2018-09-25T22:39:25.844Z,0.98
2018-09-25T22:41:59.687Z,1.00
2018-09-25T22:44:33.452Z,1.30
2018-09-25T22:47:07.177Z,1.20
2018-09-25T22:49:40.774Z,1.10
2018-09-25T22:52:14.585Z,1.00
2018-09-25T22:54:48.425Z,1.10
2018-09-25T22:57:22.158Z,1.52
2018-09-25T22:59:55.937Z,1.10
2018-09-25T23:02:29.622Z,2.60
2018-09-25T23:05:03.268Z,1.17
2018-09-25T23:07:37.060Z,1.37
2018-09-25T23:10:11.001Z,2.12
2018-09-25T23:12:44.844Z,1.15
2018-09-25T23:15:18.594Z,1.27
2018-09-25T23:17:52.555Z,1.00
2018-09-25T23:20:26.359Z,1.27
2018-09-25T23:23:00.151Z,1.40
2018-09-25T23:25:33.938Z,1.30
2018-09-25T23:28:07.687Z,1.12
2018-09-25T23:30:41.551Z,1.35
2018-09-25T23:33:15.257Z,0.90
2018-09-25T23:35:49.055Z,1.10
2018-09-25T23:38:22.918Z,1.20
2018-09-25T23:41:57.389Z,1.12
2018-09-25T23:44:49.107Z,1.15
2018-09-25T23:47:35.169Z,1.05
2018-09-25T23:50:06.150Z,1.20
2018-09-25T23:52:40.999Z,1.20
2018-09-25T23:55:44.789Z,1.62
2018-09-25T23:58:17.106Z,1.00
